createdAt,value
2017-08-15T00:00:43.990Z,0
2017-08-15T00:01:53.924Z,0
2017-08-15T00:03:04.018Z,0
2017-08-15T00:04:13.975Z,0
2017-08-15T00:05:24.208Z,0
2017-08-15T00:06:34.437Z,0
2017-08-15T00:07:44.675Z,0
2017-08-15T00:08:54.762Z,0
2017-08-15T00:10:04.996Z,0
2017-08-15T00:11:14.927Z,0
2017-08-15T00:12:24.899Z,0
2017-08-15T00:13:34.519Z,0
2017-08-15T00:14:44.583Z,0
2017-08-15T00:15:53.956Z,0
2017-08-15T00:17:04.200Z,0
2017-08-15T00:18:14.438Z,0
2017-08-15T00:19:24.046Z,0
2017-08-15T00:20:34.281Z,0
2017-08-15T00:21:44.197Z,0
2017-08-15T00:22:54.446Z,0
2017-08-15T00:24:04.361Z,0
2017-08-15T00:25:14.592Z,0
2017-08-15T00:26:24.595Z,0
2017-08-15T00:27:34.514Z,0
2017-08-15T00:28:43.834Z,0
2017-08-15T00:29:53.768Z,0
2017-08-15T00:31:04.002Z,0
2017-08-15T00:32:14.578Z,0
2017-08-15T00:33:24.516Z,0
2017-08-15T00:34:34.452Z,0
2017-08-15T00:35:44.375Z,0
2017-08-15T00:36:54.669Z,0
2017-08-15T00:38:04.757Z,0
2017-08-15T00:39:14.991Z,0
2017-08-15T00:40:24.605Z,0
2017-08-15T00:41:34.547Z,0
2017-08-15T00:42:44.787Z,0
2017-08-15T00:43:54.280Z,0
2017-08-15T00:45:04.199Z,0
2017-08-15T00:46:13.546Z,0
2017-08-15T00:47:23.465Z,0
2017-08-15T00:48:33.390Z,0
2017-08-15T00:49:44.144Z,0
2017-08-15T00:50:54.387Z,0
2017-08-15T00:52:04.016Z,0
2017-08-15T00:53:13.934Z,0
2017-08-15T00:54:24.189Z,0
2017-08-15T00:55:34.579Z,0
2017-08-15T00:56:44.199Z,0
2017-08-15T00:57:54.140Z,0
2017-08-15T00:59:03.154Z,0
2017-08-15T01:00:13.068Z,0
2017-08-15T01:01:23.303Z,0
2017-08-15T01:02:32.927Z,0
2017-08-15T01:03:42.561Z,0
2017-08-15T01:04:52.481Z,0
2017-08-15T01:06:02.090Z,0
2017-08-15T01:07:12.155Z,0
2017-08-15T01:08:22.092Z,0
2017-08-15T01:09:32.011Z,0
2017-08-15T01:10:41.626Z,0
2017-08-15T01:11:51.582Z,0
2017-08-15T01:13:01.965Z,0
2017-08-15T01:14:11.894Z,0
2017-08-15T01:15:21.543Z,0
2017-08-15T01:16:31.774Z,0
2017-08-15T01:17:42.013Z,0
2017-08-15T01:18:52.088Z,0
2017-08-15T01:20:02.039Z,0
2017-08-15T01:21:12.286Z,0
2017-08-15T01:22:22.209Z,0
2017-08-15T01:23:31.549Z,0
2017-08-15T01:24:41.529Z,0
2017-08-15T01:25:51.141Z,0
2017-08-15T01:27:01.055Z,0
2017-08-15T01:28:11.285Z,0
2017-08-15T01:29:21.231Z,0
2017-08-15T01:30:30.883Z,0
2017-08-15T01:31:40.821Z,0
2017-08-15T01:32:50.441Z,0
2017-08-15T01:34:00.062Z,0
2017-08-15T01:35:10.030Z,0
2017-08-15T01:36:19.792Z,0
2017-08-15T01:37:29.418Z,0
2017-08-15T01:38:39.643Z,0
2017-08-15T01:39:49.571Z,0
2017-08-15T01:40:59.191Z,0
2017-08-15T01:42:09.569Z,0
2017-08-15T01:43:18.874Z,0
2017-08-15T01:44:29.101Z,0
2017-08-15T01:45:39.018Z,0
2017-08-15T01:46:49.237Z,0
2017-08-15T01:47:59.304Z,0
2017-08-15T01:49:09.214Z,0
2017-08-15T01:50:18.823Z,0
2017-08-15T01:51:28.736Z,0
2017-08-15T01:52:38.961Z,0
2017-08-15T01:53:48.729Z,0
2017-08-15T01:54:58.357Z,0
2017-08-15T01:56:08.299Z,0
2017-08-15T01:57:18.536Z,0
2017-08-15T01:58:28.472Z,0
2017-08-15T01:59:37.793Z,0
2017-08-15T02:00:47.788Z,0
2017-08-15T02:01:58.020Z,0
2017-08-15T02:03:08.248Z,0
2017-08-15T02:04:17.875Z,0
2017-08-15T02:05:28.105Z,0
2017-08-15T02:06:38.334Z,0
2017-08-15T02:07:47.983Z,0
2017-08-15T02:08:57.298Z,0
2017-08-15T02:10:07.063Z,0
2017-08-15T02:11:16.975Z,0
2017-08-15T02:12:26.897Z,0
2017-08-15T02:13:36.838Z,0
2017-08-15T02:14:47.093Z,0
2017-08-15T02:15:57.379Z,0
2017-08-15T02:17:06.992Z,0
2017-08-15T02:18:17.216Z,0
2017-08-15T02:19:27.443Z,0
2017-08-15T02:20:37.056Z,0
2017-08-15T02:21:46.508Z,0
2017-08-15T02:22:56.423Z,0
2017-08-15T02:24:06.359Z,0
2017-08-15T02:25:15.973Z,0
2017-08-15T02:26:25.581Z,0
2017-08-15T02:27:35.504Z,0
2017-08-15T02:28:45.726Z,0
2017-08-15T02:29:55.645Z,0
2017-08-15T02:31:05.577Z,0
2017-08-15T02:32:15.799Z,0
2017-08-15T02:33:25.713Z,0
2017-08-15T02:34:35.941Z,0
2017-08-15T02:35:44.939Z,0
2017-08-15T02:36:54.859Z,0
2017-08-15T02:38:05.304Z,0
2017-08-15T02:39:14.400Z,0
2017-08-15T02:40:24.634Z,0
2017-08-15T02:41:34.555Z,0
2017-08-15T02:42:44.475Z,0
2017-08-15T02:43:54.714Z,0
2017-08-15T02:45:04.680Z,0
2017-08-15T02:46:14.586Z,0
2017-08-15T02:47:24.187Z,0
2017-08-15T02:48:34.095Z,0
2017-08-15T02:49:43.397Z,0
2017-08-15T02:50:53.769Z,0
2017-08-15T02:52:03.697Z,0
2017-08-15T02:53:13.614Z,0
2017-08-15T02:54:23.551Z,0
2017-08-15T02:55:33.463Z,0
2017-08-15T02:56:43.832Z,0
2017-08-15T02:57:53.746Z,0
2017-08-15T02:59:03.364Z,0
2017-08-15T03:00:13.287Z,0
2017-08-15T03:01:23.522Z,0
2017-08-15T03:02:33.448Z,0
2017-08-15T03:03:43.380Z,0
2017-08-15T03:04:53.005Z,0
2017-08-15T03:06:03.255Z,0
2017-08-15T03:07:13.286Z,0
2017-08-15T03:08:23.511Z,0
2017-08-15T03:09:33.113Z,0
2017-08-15T03:10:43.021Z,0
2017-08-15T03:11:53.268Z,0
2017-08-15T03:13:03.356Z,0
2017-08-15T03:14:13.280Z,0
2017-08-15T03:15:23.495Z,0
2017-08-15T03:16:32.807Z,0
2017-08-15T03:17:43.030Z,0
2017-08-15T03:18:52.649Z,0
2017-08-15T03:20:02.275Z,0
2017-08-15T03:21:11.881Z,0
2017-08-15T03:22:22.106Z,0
2017-08-15T03:23:31.724Z,0
2017-08-15T03:24:41.631Z,0
2017-08-15T03:25:50.942Z,0
2017-08-15T03:27:01.185Z,0
2017-08-15T03:28:11.404Z,0
2017-08-15T03:29:21.317Z,0
2017-08-15T03:30:30.941Z,0
2017-08-15T03:31:40.854Z,0
2017-08-15T03:32:51.069Z,0
2017-08-15T03:34:00.986Z,0
2017-08-15T03:35:11.206Z,0
2017-08-15T03:36:21.227Z,0
2017-08-15T03:37:31.140Z,0
2017-08-15T03:38:40.454Z,0
2017-08-15T03:39:50.685Z,0
2017-08-15T03:41:00.319Z,0
2017-08-15T03:42:10.078Z,0
2017-08-15T03:43:20.302Z,0
2017-08-15T03:44:30.225Z,0
2017-08-15T03:45:40.157Z,0
2017-08-15T03:46:49.780Z,0
2017-08-15T03:48:00.050Z,0
2017-08-15T03:49:09.969Z,0
2017-08-15T03:50:19.878Z,0
2017-08-15T03:51:29.796Z,0
2017-08-15T03:52:39.101Z,0
2017-08-15T03:53:49.072Z,0
2017-08-15T03:54:59.301Z,0
2017-08-15T03:56:09.213Z,0
2017-08-15T03:57:19.122Z,0
2017-08-15T03:58:29.041Z,0
2017-08-15T03:59:39.111Z,0
2017-08-15T04:00:49.034Z,0
2017-08-15T04:01:59.255Z,0
2017-08-15T04:03:08.865Z,0
2017-08-15T04:04:19.094Z,0
2017-08-15T04:05:29.456Z,0
2017-08-15T04:06:39.375Z,0
2017-08-15T04:07:49.589Z,0
2017-08-15T04:08:59.507Z,0
2017-08-15T04:10:08.804Z,0
2017-08-15T04:11:18.594Z,0
2017-08-15T04:12:28.213Z,0
2017-08-15T04:13:37.835Z,0
2017-08-15T04:14:48.064Z,0
2017-08-15T04:15:57.982Z,0
2017-08-15T04:17:08.053Z,0
2017-08-15T04:18:18.276Z,0
2017-08-15T04:19:28.224Z,0
2017-08-15T04:20:37.856Z,0
2017-08-15T04:21:47.465Z,0
2017-08-15T04:22:57.216Z,0
2017-08-15T04:24:07.450Z,0
2017-08-15T04:25:17.708Z,0
2017-08-15T04:26:27.029Z,0
2017-08-15T04:27:36.631Z,0
2017-08-15T04:28:46.562Z,0
2017-08-15T04:29:56.185Z,0
2017-08-15T04:31:06.401Z,0
2017-08-15T04:32:16.045Z,0
2017-08-15T04:33:25.986Z,0
2017-08-15T04:34:35.681Z,0
2017-08-15T04:35:44.685Z,0
2017-08-15T04:36:54.937Z,0
2017-08-15T04:38:04.876Z,0
2017-08-15T04:39:15.114Z,0
2017-08-15T04:40:25.205Z,0
2017-08-15T04:41:35.145Z,0
2017-08-15T04:42:45.401Z,0
2017-08-15T04:43:55.331Z,0
2017-08-15T04:45:05.265Z,0
2017-08-15T04:46:15.348Z,0
2017-08-15T04:47:25.584Z,0
2017-08-15T04:48:34.901Z,0
2017-08-15T04:49:45.139Z,0
2017-08-15T04:50:54.796Z,0
2017-08-15T04:52:04.937Z,0
2017-08-15T04:53:14.873Z,0
2017-08-15T04:54:25.099Z,0
2017-08-15T04:55:34.408Z,0
2017-08-15T04:56:44.317Z,0
2017-08-15T04:57:54.284Z,0
2017-08-15T04:59:04.507Z,0
2017-08-15T05:00:13.518Z,0
2017-08-15T05:01:23.439Z,0
2017-08-15T05:02:32.758Z,0
2017-08-15T05:03:42.728Z,5
2017-08-15T05:04:52.983Z,5
2017-08-15T05:06:02.624Z,5
2017-08-15T05:07:12.546Z,5
2017-08-15T05:08:22.477Z,5
2017-08-15T05:09:32.558Z,5
2017-08-15T05:10:42.796Z,5
2017-08-15T05:11:51.814Z,5
2017-08-15T05:13:01.445Z,5
2017-08-15T05:14:11.080Z,10
2017-08-15T05:15:21.457Z,10
2017-08-15T05:16:31.372Z,15
2017-08-15T05:17:41.287Z,15
2017-08-15T05:18:51.540Z,15
2017-08-15T05:20:01.473Z,15
2017-08-15T05:21:11.501Z,15
2017-08-15T05:22:21.445Z,15
2017-08-15T05:23:31.383Z,15
2017-08-15T05:24:41.302Z,15
2017-08-15T05:25:51.239Z,20
2017-08-15T05:27:01.815Z,20
2017-08-15T05:28:12.045Z,20
2017-08-15T05:29:21.686Z,20
2017-08-15T05:30:31.627Z,20
2017-08-15T05:31:41.273Z,20
2017-08-15T05:32:51.041Z,20
2017-08-15T05:34:00.649Z,20
2017-08-15T05:35:10.557Z,20
2017-08-15T05:36:20.471Z,20
2017-08-15T05:37:30.087Z,20
2017-08-15T05:38:39.761Z,20
2017-08-15T05:39:49.690Z,25
2017-08-15T05:40:59.608Z,25
2017-08-15T05:42:09.219Z,25
2017-08-15T05:43:19.435Z,25
2017-08-15T05:44:29.511Z,25
2017-08-15T05:45:39.428Z,25
2017-08-15T05:46:49.029Z,30
2017-08-15T05:47:58.644Z,30
2017-08-15T05:49:08.863Z,30
2017-08-15T05:50:19.086Z,30
2017-08-15T05:51:28.714Z,30
2017-08-15T05:52:38.017Z,30
2017-08-15T05:53:47.952Z,30
2017-08-15T05:54:57.889Z,30
2017-08-15T05:56:07.832Z,30
2017-08-15T05:57:17.745Z,30
2017-08-15T05:58:27.362Z,30
2017-08-15T05:59:36.989Z,30
2017-08-15T06:00:47.219Z,30
2017-08-15T06:01:57.159Z,35
2017-08-15T06:03:07.066Z,35
2017-08-15T06:04:16.666Z,35
2017-08-15T06:05:26.578Z,35
2017-08-15T06:06:36.805Z,35
2017-08-15T06:07:47.170Z,35
2017-08-15T06:08:57.083Z,35
2017-08-15T06:10:07.004Z,35
2017-08-15T06:11:16.912Z,40
2017-08-15T06:12:26.840Z,40
2017-08-15T06:13:36.923Z,40
2017-08-15T06:14:46.838Z,40
2017-08-15T06:15:56.442Z,40
2017-08-15T06:17:06.049Z,35
2017-08-15T06:18:16.019Z,25
2017-08-15T06:19:26.290Z,20
2017-08-15T06:20:36.205Z,20
2017-08-15T06:21:46.133Z,30
2017-08-15T06:22:56.065Z,20
2017-08-15T06:24:05.688Z,20
2017-08-15T06:25:15.933Z,20
2017-08-15T06:26:26.176Z,20
2017-08-15T06:27:36.417Z,20
2017-08-15T06:28:46.342Z,20
2017-08-15T06:29:55.941Z,20
2017-08-15T06:31:06.315Z,15
2017-08-15T06:32:16.224Z,15
2017-08-15T06:33:26.451Z,15
2017-08-15T06:34:36.382Z,15
2017-08-15T06:35:46.307Z,15
2017-08-15T06:36:56.262Z,20
2017-08-15T06:38:06.194Z,20
2017-08-15T06:39:16.128Z,25
2017-08-15T06:40:26.354Z,25
2017-08-15T06:41:35.371Z,25
2017-08-15T06:42:45.415Z,25
2017-08-15T06:43:55.352Z,25
2017-08-15T06:45:05.282Z,20
2017-08-15T06:46:15.520Z,25
2017-08-15T06:47:25.201Z,25
2017-08-15T06:48:35.121Z,25
2017-08-15T06:49:45.068Z,30
2017-08-15T06:50:54.991Z,30
2017-08-15T06:52:04.908Z,30
2017-08-15T06:53:14.859Z,35
2017-08-15T06:54:25.137Z,35
2017-08-15T06:55:35.386Z,35
2017-08-15T06:56:44.688Z,35
2017-08-15T06:57:54.608Z,40
2017-08-15T06:59:04.520Z,40
2017-08-15T07:00:14.755Z,40
2017-08-15T07:01:24.676Z,40
2017-08-15T07:02:34.593Z,40
2017-08-15T07:03:44.531Z,40
2017-08-15T07:04:53.832Z,40
2017-08-15T07:06:03.921Z,40
2017-08-15T07:07:13.840Z,40
2017-08-15T07:08:24.065Z,40
2017-08-15T07:09:34.002Z,40
2017-08-15T07:10:44.232Z,40
2017-08-15T07:11:53.865Z,40
2017-08-15T07:13:03.782Z,40
2017-08-15T07:14:13.394Z,40
2017-08-15T07:15:23.312Z,40
2017-08-15T07:16:32.925Z,40
2017-08-15T07:17:43.219Z,35
2017-08-15T07:18:53.458Z,35
2017-08-15T07:20:03.368Z,35
2017-08-15T07:21:13.303Z,35
2017-08-15T07:22:22.941Z,35
2017-08-15T07:23:33.013Z,35
2017-08-15T07:24:42.621Z,35
2017-08-15T07:25:52.838Z,35
2017-08-15T07:27:03.082Z,35
2017-08-15T07:28:13.018Z,35
2017-08-15T07:29:22.793Z,40
2017-08-15T07:30:33.017Z,40
2017-08-15T07:31:43.262Z,45
2017-08-15T07:32:53.187Z,50
2017-08-15T07:34:03.117Z,50
2017-08-15T07:35:13.189Z,50
2017-08-15T07:36:23.127Z,50
2017-08-15T07:37:33.375Z,45
2017-08-15T07:38:42.987Z,45
2017-08-15T07:39:52.621Z,50
2017-08-15T07:41:03.054Z,65
2017-08-15T07:42:12.974Z,75
2017-08-15T07:43:22.912Z,80
2017-08-15T07:44:32.543Z,85
2017-08-15T07:45:42.790Z,40
2017-08-15T07:46:53.194Z,25
2017-08-15T07:48:03.152Z,20
2017-08-15T07:49:12.767Z,20
2017-08-15T07:50:22.397Z,20
2017-08-15T07:51:32.647Z,20
2017-08-15T07:52:42.712Z,25
2017-08-15T07:53:52.641Z,20
2017-08-15T07:55:02.568Z,15
2017-08-15T07:56:12.211Z,15
2017-08-15T07:57:22.148Z,15
2017-08-15T07:58:31.919Z,15
2017-08-15T07:59:41.858Z,15
2017-08-15T08:00:51.493Z,15
2017-08-15T08:02:01.423Z,10
2017-08-15T08:03:11.329Z,10
2017-08-15T08:04:21.107Z,10
2017-08-15T08:05:31.017Z,10
2017-08-15T08:06:41.246Z,10
2017-08-15T08:07:51.468Z,10
2017-08-15T08:09:01.112Z,10
2017-08-15T08:10:11.475Z,10
2017-08-15T08:11:21.704Z,10
2017-08-15T08:12:31.033Z,10
2017-08-15T08:13:40.953Z,10
2017-08-15T08:14:50.892Z,10
2017-08-15T08:16:01.125Z,10
2017-08-15T08:17:10.738Z,10
2017-08-15T08:18:20.648Z,5
2017-08-15T08:19:29.971Z,5
2017-08-15T08:20:40.214Z,5
2017-08-15T08:21:49.829Z,5
2017-08-15T08:23:00.076Z,5
2017-08-15T08:24:10.010Z,5
2017-08-15T08:25:20.235Z,5
2017-08-15T08:26:29.856Z,5
2017-08-15T08:27:39.566Z,5
2017-08-15T08:28:49.532Z,10
2017-08-15T08:29:59.753Z,10
2017-08-15T08:31:09.983Z,10
2017-08-15T08:32:19.894Z,10
2017-08-15T08:33:30.228Z,10
2017-08-15T08:34:39.844Z,10
2017-08-15T08:35:49.763Z,10
2017-08-15T08:36:59.066Z,10
2017-08-15T08:38:09.002Z,10
2017-08-15T08:39:19.753Z,10
2017-08-15T08:40:30.010Z,10
2017-08-15T08:41:39.617Z,10
2017-08-15T08:42:49.542Z,10
2017-08-15T08:43:59.466Z,10
2017-08-15T08:45:09.442Z,10
2017-08-15T08:46:19.378Z,5
2017-08-15T08:47:28.674Z,5
2017-08-15T08:48:38.901Z,5
2017-08-15T08:49:48.818Z,5
2017-08-15T08:50:58.418Z,5
2017-08-15T08:52:08.331Z,5
2017-08-15T08:53:17.945Z,5
2017-08-15T08:54:27.885Z,5
2017-08-15T08:55:37.810Z,5
2017-08-15T08:56:47.730Z,5
2017-08-15T08:57:57.653Z,5
2017-08-15T08:59:06.965Z,5
2017-08-15T09:00:17.205Z,5
2017-08-15T09:01:26.508Z,0
2017-08-15T09:02:36.120Z,0
2017-08-15T09:03:46.343Z,0
2017-08-15T09:04:56.570Z,0
2017-08-15T09:06:06.194Z,0
2017-08-15T09:07:16.429Z,5
2017-08-15T09:08:26.493Z,5
2017-08-15T09:09:36.102Z,5
2017-08-15T09:10:46.035Z,0
2017-08-15T09:11:55.962Z,0
2017-08-15T09:13:05.269Z,0
2017-08-15T09:14:14.899Z,5
2017-08-15T09:15:24.819Z,5
2017-08-15T09:16:34.746Z,5
2017-08-15T09:17:44.357Z,5
2017-08-15T09:18:53.967Z,5
2017-08-15T09:20:04.190Z,5
2017-08-15T09:21:14.109Z,5
2017-08-15T09:22:23.729Z,5
2017-08-15T09:23:33.356Z,5
2017-08-15T09:24:43.289Z,5
2017-08-15T09:25:53.886Z,5
2017-08-15T09:27:04.122Z,5
2017-08-15T09:28:14.338Z,5
2017-08-15T09:29:23.959Z,5
2017-08-15T09:30:34.198Z,5
2017-08-15T09:31:44.731Z,5
2017-08-15T09:32:54.670Z,5
2017-08-15T09:34:04.920Z,0
2017-08-15T09:35:15.145Z,0
2017-08-15T09:36:25.397Z,0
2017-08-15T09:37:35.412Z,0
2017-08-15T09:38:45.343Z,0
2017-08-15T09:39:55.579Z,0
2017-08-15T09:41:05.234Z,0
2017-08-15T09:42:14.853Z,0
2017-08-15T09:43:24.922Z,0
2017-08-15T09:44:34.540Z,0
2017-08-15T09:45:44.146Z,0
2017-08-15T09:46:53.762Z,0
2017-08-15T09:48:03.693Z,0
2017-08-15T09:49:13.301Z,0
2017-08-15T09:50:22.912Z,0
2017-08-15T09:51:32.841Z,0
2017-08-15T09:52:43.099Z,0
2017-08-15T09:53:52.711Z,0
2017-08-15T09:55:02.650Z,0
2017-08-15T09:56:12.264Z,0
2017-08-15T09:57:22.187Z,0
2017-08-15T09:58:32.427Z,0
2017-08-15T09:59:42.369Z,0
2017-08-15T10:00:51.987Z,0
2017-08-15T10:02:01.294Z,0
2017-08-15T10:03:10.610Z,0
2017-08-15T10:04:20.847Z,0
2017-08-15T10:05:30.562Z,0
2017-08-15T10:06:40.801Z,0
2017-08-15T10:07:50.727Z,0
2017-08-15T10:09:00.968Z,0
2017-08-15T10:10:11.207Z,0
2017-08-15T10:11:21.135Z,0
2017-08-15T10:12:31.048Z,0
2017-08-15T10:13:40.665Z,0
2017-08-15T10:14:50.611Z,0
2017-08-15T10:16:00.849Z,0
2017-08-15T10:17:11.124Z,0
2017-08-15T10:18:21.064Z,0
2017-08-15T10:19:31.288Z,0
2017-08-15T10:20:41.208Z,0
2017-08-15T10:21:51.435Z,0
2017-08-15T10:23:01.810Z,0
2017-08-15T10:24:11.724Z,0
2017-08-15T10:25:21.960Z,0
2017-08-15T10:26:32.190Z,0
2017-08-15T10:27:42.120Z,5
2017-08-15T10:28:52.353Z,5
2017-08-15T10:30:02.611Z,5
2017-08-15T10:31:12.841Z,5
2017-08-15T10:32:22.793Z,5
2017-08-15T10:33:32.722Z,5
2017-08-15T10:34:42.040Z,5
2017-08-15T10:35:51.675Z,5
2017-08-15T10:37:02.304Z,5
2017-08-15T10:38:12.235Z,5
2017-08-15T10:39:22.219Z,5
2017-08-15T10:40:32.150Z,10
2017-08-15T10:41:41.480Z,10
2017-08-15T10:42:51.703Z,15
2017-08-15T10:44:01.932Z,20
2017-08-15T10:45:11.835Z,25
2017-08-15T10:46:22.072Z,25
2017-08-15T10:47:32.300Z,25
2017-08-15T10:48:41.915Z,25
2017-08-15T10:49:52.155Z,30
2017-08-15T10:51:02.536Z,30
2017-08-15T10:52:12.157Z,35
2017-08-15T10:53:22.073Z,35
2017-08-15T10:54:32.018Z,35
2017-08-15T10:55:42.247Z,35
2017-08-15T10:56:52.463Z,35
2017-08-15T10:58:01.756Z,35
2017-08-15T10:59:12.002Z,35
2017-08-15T11:00:21.655Z,30
2017-08-15T11:01:31.628Z,35
2017-08-15T11:02:41.854Z,35
2017-08-15T11:03:51.794Z,35
2017-08-15T11:05:01.420Z,30
2017-08-15T11:06:10.739Z,30
2017-08-15T11:07:20.835Z,30
2017-08-15T11:08:30.754Z,30
2017-08-15T11:09:40.377Z,25
2017-08-15T11:10:50.013Z,25
2017-08-15T11:11:59.950Z,25
2017-08-15T11:13:10.181Z,25
2017-08-15T11:14:20.406Z,25
2017-08-15T11:15:30.016Z,25
2017-08-15T11:16:39.970Z,25
2017-08-15T11:17:49.593Z,20
2017-08-15T11:18:59.978Z,20
2017-08-15T11:20:09.897Z,20
2017-08-15T11:21:19.817Z,20
2017-08-15T11:22:29.749Z,20
2017-08-15T11:23:39.989Z,20
2017-08-15T11:24:49.928Z,20
2017-08-15T11:26:00.164Z,20
2017-08-15T11:27:10.409Z,20
2017-08-15T11:28:20.640Z,20
2017-08-15T11:29:30.617Z,20
2017-08-15T11:30:39.929Z,20
2017-08-15T11:31:50.159Z,20
2017-08-15T11:32:59.768Z,20
2017-08-15T11:34:09.993Z,20
2017-08-15T11:35:19.619Z,20
2017-08-15T11:36:29.077Z,20
2017-08-15T11:37:38.700Z,20
2017-08-15T11:38:48.651Z,25
2017-08-15T11:39:58.878Z,25
2017-08-15T11:41:08.795Z,25
2017-08-15T11:42:18.870Z,20
2017-08-15T11:43:28.792Z,20
2017-08-15T11:44:38.413Z,20
2017-08-15T11:45:48.327Z,20
2017-08-15T11:46:58.274Z,25
2017-08-15T11:48:08.577Z,25
2017-08-15T11:49:18.188Z,20
2017-08-15T11:50:28.814Z,20
2017-08-15T11:51:38.745Z,20
2017-08-15T11:52:48.413Z,20
2017-08-15T11:53:58.499Z,20
2017-08-15T11:55:08.436Z,15
2017-08-15T11:56:18.367Z,15
2017-08-15T11:57:28.321Z,15
2017-08-15T11:58:38.247Z,15
2017-08-15T11:59:48.240Z,15
2017-08-15T12:00:57.874Z,15
2017-08-15T12:02:08.142Z,15
2017-08-15T12:03:18.064Z,15
2017-08-15T12:04:27.712Z,20
2017-08-15T12:05:38.124Z,25
2017-08-15T12:06:47.435Z,25
2017-08-15T12:07:57.367Z,25
2017-08-15T12:09:06.992Z,30
2017-08-15T12:10:16.936Z,30
2017-08-15T12:11:26.885Z,30
2017-08-15T12:12:37.130Z,30
2017-08-15T12:13:47.055Z,30
2017-08-15T12:14:56.997Z,30
2017-08-15T12:16:06.924Z,30
2017-08-15T12:17:17.197Z,30
2017-08-15T12:18:27.436Z,30
2017-08-15T12:19:37.073Z,30
2017-08-15T12:20:46.395Z,30
2017-08-15T12:21:56.637Z,30
2017-08-15T12:23:06.743Z,30
2017-08-15T12:24:16.353Z,30
2017-08-15T12:25:25.983Z,25
2017-08-15T12:26:35.922Z,25
2017-08-15T12:27:45.237Z,25
2017-08-15T12:28:55.495Z,25
2017-08-15T12:30:05.416Z,25
2017-08-15T12:31:15.059Z,25
2017-08-15T12:32:24.366Z,20
2017-08-15T12:33:34.581Z,20
2017-08-15T12:34:44.250Z,15
2017-08-15T12:35:54.480Z,15
2017-08-15T12:37:04.428Z,15
2017-08-15T12:38:14.357Z,15
2017-08-15T12:39:24.290Z,15
2017-08-15T12:40:34.683Z,15
2017-08-15T12:41:44.904Z,15
2017-08-15T12:42:55.134Z,15
2017-08-15T12:44:05.375Z,10
2017-08-15T12:45:15.309Z,10
2017-08-15T12:46:24.783Z,10
2017-08-15T12:47:34.421Z,10
2017-08-15T12:48:44.050Z,10
2017-08-15T12:49:53.969Z,15
2017-08-15T12:51:04.213Z,15
2017-08-15T12:52:13.939Z,15
2017-08-15T12:53:23.875Z,10
2017-08-15T12:54:33.792Z,10
2017-08-15T12:55:43.412Z,10
2017-08-15T12:56:53.647Z,10
2017-08-15T12:58:03.438Z,10
2017-08-15T12:59:13.706Z,10
2017-08-15T13:00:23.347Z,10
2017-08-15T13:01:33.268Z,10
2017-08-15T13:02:43.204Z,10
2017-08-15T13:03:53.451Z,10
2017-08-15T13:05:03.678Z,15
2017-08-15T13:06:13.620Z,15
2017-08-15T13:07:23.576Z,15
2017-08-15T13:08:33.503Z,20
2017-08-15T13:09:43.473Z,20
2017-08-15T13:10:53.422Z,20
2017-08-15T13:12:02.741Z,20
2017-08-15T13:13:12.058Z,20
2017-08-15T13:14:22.283Z,15
2017-08-15T13:15:32.349Z,15
2017-08-15T13:16:42.282Z,15
2017-08-15T13:17:52.207Z,15
2017-08-15T13:19:01.518Z,15
2017-08-15T13:20:11.436Z,15
2017-08-15T13:21:21.405Z,15
2017-08-15T13:22:31.013Z,15
2017-08-15T13:23:40.645Z,10
2017-08-15T13:24:50.274Z,10
2017-08-15T13:26:00.213Z,15
2017-08-15T13:27:10.137Z,15
2017-08-15T13:28:20.069Z,15
2017-08-15T13:29:30.318Z,15
2017-08-15T13:30:39.929Z,20
2017-08-15T13:31:50.176Z,20
2017-08-15T13:32:59.817Z,20
2017-08-15T13:34:09.736Z,25
2017-08-15T13:35:19.964Z,20
2017-08-15T13:36:29.898Z,20
2017-08-15T13:37:39.507Z,20
2017-08-15T13:38:49.451Z,20
2017-08-15T13:39:59.366Z,20
2017-08-15T13:41:08.988Z,20
2017-08-15T13:42:18.590Z,20
2017-08-15T13:43:28.682Z,15
2017-08-15T13:44:38.621Z,15
2017-08-15T13:45:48.550Z,15
2017-08-15T13:46:58.782Z,15
2017-08-15T13:48:09.015Z,15
2017-08-15T13:49:19.396Z,15
2017-08-15T13:50:29.640Z,15
2017-08-15T13:51:39.881Z,15
2017-08-15T13:52:50.124Z,15
2017-08-15T13:54:00.052Z,15
2017-08-15T13:55:10.291Z,15
2017-08-15T13:56:20.214Z,15
2017-08-15T13:57:29.816Z,15
2017-08-15T13:58:40.037Z,15
2017-08-15T13:59:49.676Z,15
2017-08-15T14:00:59.904Z,15
2017-08-15T14:02:10.149Z,10
2017-08-15T14:03:20.083Z,10
2017-08-15T14:04:30.003Z,10
2017-08-15T14:05:39.947Z,5
2017-08-15T14:06:49.753Z,5
2017-08-15T14:07:59.689Z,5
2017-08-15T14:09:09.639Z,5
2017-08-15T14:10:19.560Z,5
2017-08-15T14:11:29.195Z,10
2017-08-15T14:12:38.980Z,10
2017-08-15T14:13:48.905Z,10
2017-08-15T14:14:58.521Z,10
2017-08-15T14:16:08.436Z,10
2017-08-15T14:17:18.360Z,10
2017-08-15T14:18:28.453Z,10
2017-08-15T14:19:38.701Z,15
2017-08-15T14:20:48.328Z,10
2017-08-15T14:21:57.665Z,15
2017-08-15T14:23:07.589Z,15
2017-08-15T14:24:17.528Z,15
2017-08-15T14:25:27.468Z,15
2017-08-15T14:26:37.698Z,10
2017-08-15T14:27:47.323Z,10
2017-08-15T14:28:56.942Z,5
2017-08-15T14:30:06.395Z,5
2017-08-15T14:31:16.025Z,5
2017-08-15T14:32:25.669Z,5
2017-08-15T14:33:35.311Z,10
2017-08-15T14:34:45.240Z,10
2017-08-15T14:35:55.323Z,10
2017-08-15T14:37:05.563Z,10
2017-08-15T14:38:15.809Z,10
2017-08-15T14:39:25.418Z,10
2017-08-15T14:40:35.659Z,5
2017-08-15T14:41:45.575Z,5
2017-08-15T14:42:55.519Z,5
2017-08-15T14:44:05.749Z,5
2017-08-15T14:45:15.983Z,5
2017-08-15T14:46:25.920Z,5
2017-08-15T14:47:36.167Z,5
2017-08-15T14:48:45.784Z,5
2017-08-15T14:49:55.723Z,5
2017-08-15T14:51:05.662Z,5
2017-08-15T14:52:15.626Z,5
2017-08-15T14:53:25.240Z,5
2017-08-15T14:54:35.483Z,5
2017-08-15T14:55:45.135Z,5
2017-08-15T14:56:55.064Z,5
2017-08-15T14:58:04.688Z,5
2017-08-15T14:59:14.801Z,5
2017-08-15T15:00:24.729Z,5
2017-08-15T15:01:34.640Z,5
2017-08-15T15:02:44.875Z,5
2017-08-15T15:03:54.803Z,10
2017-08-15T15:05:04.567Z,10
2017-08-15T15:06:14.799Z,10
2017-08-15T15:07:24.715Z,5
2017-08-15T15:08:34.326Z,5
2017-08-15T15:09:44.919Z,5
2017-08-15T15:10:55.025Z,5
2017-08-15T15:12:04.329Z,5
2017-08-15T15:13:14.574Z,5
2017-08-15T15:14:24.186Z,5
2017-08-15T15:15:33.800Z,5
2017-08-15T15:16:43.723Z,5
2017-08-15T15:17:53.663Z,5
2017-08-15T15:19:03.898Z,5
2017-08-15T15:20:13.827Z,5
2017-08-15T15:21:23.755Z,5
2017-08-15T15:22:33.130Z,5
2017-08-15T15:23:43.051Z,5
2017-08-15T15:24:53.278Z,5
2017-08-15T15:26:03.213Z,5
2017-08-15T15:27:13.435Z,5
2017-08-15T15:28:23.448Z,5
2017-08-15T15:29:33.382Z,5
2017-08-15T15:30:43.009Z,5
2017-08-15T15:31:53.233Z,5
2017-08-15T15:33:03.159Z,5
2017-08-15T15:34:13.420Z,5
2017-08-15T15:35:23.649Z,5
2017-08-15T15:36:33.284Z,5
2017-08-15T15:37:43.217Z,5
2017-08-15T15:38:53.293Z,5
2017-08-15T15:40:02.611Z,5
2017-08-15T15:41:12.850Z,5
2017-08-15T15:42:22.461Z,5
2017-08-15T15:43:32.690Z,5
2017-08-15T15:44:43.090Z,0
2017-08-15T15:45:53.353Z,0
2017-08-15T15:47:03.295Z,5
2017-08-15T15:48:12.924Z,5
2017-08-15T15:49:22.865Z,5
2017-08-15T15:50:33.241Z,5
2017-08-15T15:51:43.690Z,5
2017-08-15T15:52:53.937Z,5
2017-08-15T15:54:02.939Z,5
2017-08-15T15:55:12.860Z,5
2017-08-15T15:56:23.378Z,5
2017-08-15T15:57:32.733Z,5
2017-08-15T15:58:42.368Z,5
2017-08-15T15:59:52.347Z,5
2017-08-15T16:01:02.574Z,5
2017-08-15T16:02:12.179Z,5
2017-08-15T16:03:22.438Z,5
2017-08-15T16:04:32.358Z,5
2017-08-15T16:05:42.317Z,5
2017-08-15T16:06:51.990Z,5
2017-08-15T16:08:02.114Z,0
2017-08-15T16:09:12.088Z,0
2017-08-15T16:10:22.349Z,5
2017-08-15T16:11:31.705Z,5
2017-08-15T16:12:41.021Z,5
2017-08-15T16:13:50.480Z,5
2017-08-15T16:15:00.724Z,5
2017-08-15T16:16:10.645Z,5
2017-08-15T16:17:20.566Z,5
2017-08-15T16:18:30.819Z,5
2017-08-15T16:19:40.589Z,5
2017-08-15T16:20:50.838Z,5
2017-08-15T16:22:00.764Z,5
2017-08-15T16:23:10.395Z,5
2017-08-15T16:24:20.322Z,5
2017-08-15T16:25:30.616Z,5
2017-08-15T16:26:40.545Z,5
2017-08-15T16:27:50.791Z,5
2017-08-15T16:29:00.411Z,5
2017-08-15T16:30:09.713Z,5
2017-08-15T16:31:19.644Z,5
2017-08-15T16:32:29.277Z,5
2017-08-15T16:33:39.502Z,10
2017-08-15T16:34:49.725Z,10
2017-08-15T16:35:59.357Z,10
2017-08-15T16:37:09.591Z,5
2017-08-15T16:38:19.519Z,5
2017-08-15T16:39:29.451Z,5
2017-08-15T16:40:39.063Z,5
2017-08-15T16:41:48.668Z,5
2017-08-15T16:42:58.734Z,5
2017-08-15T16:44:08.333Z,5
2017-08-15T16:45:18.270Z,5
2017-08-15T16:46:28.900Z,5
2017-08-15T16:47:39.151Z,5
2017-08-15T16:48:49.446Z,5
2017-08-15T16:49:59.691Z,5
2017-08-15T16:51:09.943Z,5
2017-08-15T16:52:19.571Z,5
2017-08-15T16:53:29.497Z,5
2017-08-15T16:54:39.238Z,5
2017-08-15T16:55:49.191Z,5
2017-08-15T16:56:59.124Z,5
2017-08-15T16:58:09.064Z,5